Naha Airport

Airport
ICAO code: 
ROAH
IATA Code: 
OKA
Summary
ICAO Region: 
APAC
Territory: 
Location: 
Naha, Okinawa Prefecture
Serving: 
Naha
Elevation: 
11 ft
Coordinates: 
Aerial View: 
26° 12' 23.616" N, 127° 39' 2.441" E
Airport WX: 
Tropical Revolving Storm
Metar
Observation
ROAH 030400Z 34015KT 9999 FEW035 SCT045 20/10 Q1017
Station
Naha Airport
Date/Time
2021-12-03 04:00:00
Wind direction
340°
Wind speed
15 kts
Lowest cloud amount
few clouds
Temperature
20°C
Dew point
10°C
Humidity
52%
QNH
1017 hPa
Weather condition
n/a

Naha Airport is located on the Island of Okinawa 4 km west of the centre of Naha. The airport is a joint civil and military base. The airport is in close proximity to the USAF base at Kadena and the USMC base at Futenma. The extended centrelines of both of these airfields intersect the approach to RWY 18 at Naha and this restricts and influences the types of approach available.

Climatology

Humid Sub-tropical climate (Köppen climate classification Cfa)

Occasional Typhoons coming from South China Sea.

Runways

Designator Length Width Surface Rops
18/36 2999 46 ASP Yes/Yes
Airport map: 
Aerial View: 

SKYbrary Partners:

Safety knowledge contributed by: